sensor_id;sensor_type;location;lat;lon;timestamp;temperature;humidity
23669;DHT22;12011;47.422;15.018;2023-09-07T00:01:05;10.70;99.90
23669;DHT22;12011;47.422;15.018;2023-09-07T00:04:04;10.70;99.90
23669;DHT22;12011;47.422;15.018;2023-09-07T00:06:51;10.60;99.90
23669;DHT22;12011;47.422;15.018;2023-09-07T00:13:38;10.50;99.90
23669;DHT22;12011;47.422;15.018;2023-09-07T00:16:40;10.40;99.90
23669;DHT22;12011;47.422;15.018;2023-09-07T00:19:43;10.40;99.90
23669;DHT22;12011;47.422;15.018;2023-09-07T00:23:04;10.30;99.90
23669;DHT22;12011;47.422;15.018;2023-09-07T00:26:17;10.30;99.90
23669;DHT22;12011;47.422;15.018;2023-09-07T00:29:24;10.30;99.90
23669;DHT22;12011;47.422;15.018;2023-09-07T00:35:15;10.30;99.90
23669;DHT22;12011;47.422;15.018;2023-09-07T00:38:48;10.20;99.90
23669;DHT22;12011;47.422;15.018;2023-09-07T00:41:57;10.00;99.90
23669;DHT22;12011;47.422;15.018;2023-09-07T00:44:33;10.00;99.90
23669;DHT22;12011;47.422;15.018;2023-09-07T00:47:24;10.00;99.90
23669;DHT22;12011;47.422;15.018;2023-09-07T00:50:08;10.00;99.90
23669;DHT22;12011;47.422;15.018;2023-09-07T00:53:06;10.00;99.90
23669;DHT22;12011;47.422;15.018;2023-09-07T00:55:53;10.10;99.90
23669;DHT22;12011;47.422;15.018;2023-09-07T00:58:54;10.20;99.90
23669;DHT22;12011;47.422;15.018;2023-09-07T01:01:52;10.20;99.90
23669;DHT22;12011;47.422;15.018;2023-09-07T01:05:03;10.20;99.90
23669;DHT22;12011;47.422;15.018;2023-09-07T01:08:35;10.10;99.90
23669;DHT22;12011;47.422;15.018;2023-09-07T01:11:45;10.00;99.90
23669;DHT22;12011;47.422;15.018;2023-09-07T01:15:09;10.00;99.90
23669;DHT22;12011;47.422;15.018;2023-09-07T01:18:38;9.90;99.90
23669;DHT22;12011;47.422;15.018;2023-09-07T01:22:06;9.90;99.90
23669;DHT22;12011;47.422;15.018;2023-09-07T01:25:12;9.80;99.90
23669;DHT22;12011;47.422;15.018;2023-09-07T01:28:19;9.80;99.90
23669;DHT22;12011;47.422;15.018;2023-09-07T01:32:00;9.70;99.90
23669;DHT22;12011;47.422;15.018;2023-09-07T01:35:18;9.70;99.90
23669;DHT22;12011;47.422;15.018;2023-09-07T01:38:30;9.70;99.90
23669;DHT22;12011;47.422;15.018;2023-09-07T01:41:37;9.70;99.90
23669;DHT22;12011;47.422;15.018;2023-09-07T01:44:54;9.70;99.90
23669;DHT22;12011;47.422;15.018;2023-09-07T01:51:58;9.50;99.90
23669;DHT22;12011;47.422;15.018;2023-09-07T01:55:29;9.50;99.90
23669;DHT22;12011;47.422;15.018;2023-09-07T01:58:50;9.40;99.90
23669;DHT22;12011;47.422;15.018;2023-09-07T02:05:11;9.30;99.90
23669;DHT22;12011;47.422;15.018;2023-09-07T02:08:05;9.40;99.90
23669;DHT22;12011;47.422;15.018;2023-09-07T02:11:06;9.40;99.90
23669;DHT22;12011;47.422;15.018;2023-09-07T02:14:15;9.40;99.90
23669;DHT22;12011;47.422;15.018;2023-09-07T02:18:00;9.40;99.90
23669;DHT22;12011;47.422;15.018;2023-09-07T02:21:19;9.40;99.90
23669;DHT22;12011;47.422;15.018;2023-09-07T02:24:18;9.40;99.90
23669;DHT22;12011;47.422;15.018;2023-09-07T02:27:51;9.40;99.90
23669;DHT22;12011;47.422;15.018;2023-09-07T02:31:24;9.40;99.90
23669;DHT22;12011;47.422;15.018;2023-09-07T02:34:33;9.40;99.90
23669;DHT22;12011;47.422;15.018;2023-09-07T02:37:43;9.20;99.90
23669;DHT22;12011;47.422;15.018;2023-09-07T02:40:51;9.10;99.90
23669;DHT22;12011;47.422;15.018;2023-09-07T02:43:58;9.00;99.90
23669;DHT22;12011;47.422;15.018;2023-09-07T02:47:21;9.00;99.90
23669;DHT22;12011;47.422;15.018;2023-09-07T02:50:21;9.00;99.90
23669;DHT22;12011;47.422;15.018;2023-09-07T02:53:29;8.90;99.90
23669;DHT22;12011;47.422;15.018;2023-09-07T02:56:34;8.90;99.90
23669;DHT22;12011;47.422;15.018;2023-09-07T02:59:38;8.90;99.90
23669;DHT22;12011;47.422;15.018;2023-09-07T03:02:53;8.90;99.90
23669;DHT22;12011;47.422;15.018;2023-09-07T03:05:47;9.00;99.90
23669;DHT22;12011;47.422;15.018;2023-09-07T03:08:38;9.00;99.90
23669;DHT22;12011;47.422;15.018;2023-09-07T03:11:31;9.00;99.90
23669;DHT22;12011;47.422;15.018;2023-09-07T03:14:19;8.80;99.90
23669;DHT22;12011;47.422;15.018;2023-09-07T03:17:03;8.80;99.90
23669;DHT22;12011;47.422;15.018;2023-09-07T03:20:19;8.80;99.90
23669;DHT22;12011;47.422;15.018;2023-09-07T03:23:15;8.80;99.90
23669;DHT22;12011;47.422;15.018;2023-09-07T03:26:29;8.80;99.90
23669;DHT22;12011;47.422;15.018;2023-09-07T03:29:49;8.70;99.90
23669;DHT22;12011;47.422;15.018;2023-09-07T03:32:48;8.70;99.90
23669;DHT22;12011;47.422;15.018;2023-09-07T03:36:07;8.60;99.90
23669;DHT22;12011;47.422;15.018;2023-09-07T03:39:13;8.60;99.90
23669;DHT22;12011;47.422;15.018;2023-09-07T03:42:45;8.60;99.90
23669;DHT22;12011;47.422;15.018;2023-09-07T03:45:58;8.60;99.90
23669;DHT22;12011;47.422;15.018;2023-09-07T03:48:56;8.80;99.90
23669;DHT22;12011;47.422;15.018;2023-09-07T03:51:59;8.70;99.90
23669;DHT22;12011;47.422;15.018;2023-09-07T03:55:11;8.70;99.90
23669;DHT22;12011;47.422;15.018;2023-09-07T03:58:28;8.90;99.90
23669;DHT22;12011;47.422;15.018;2023-09-07T04:01:50;8.50;99.90
23669;DHT22;12011;47.422;15.018;2023-09-07T04:05:17;8.60;99.90
23669;DHT22;12011;47.422;15.018;2023-09-07T04:08:11;8.50;99.90
23669;DHT22;12011;47.422;15.018;2023-09-07T04:11:16;8.40;99.90
23669;DHT22;12011;47.422;15.018;2023-09-07T04:14:11;8.30;99.90
23669;DHT22;12011;47.422;15.018;2023-09-07T04:17:05;8.30;99.90
23669;DHT22;12011;47.422;15.018;2023-09-07T04:20:05;8.30;99.90
23669;DHT22;12011;47.422;15.018;2023-09-07T04:22:53;8.30;99.90
23669;DHT22;12011;47.422;15.018;2023-09-07T04:25:50;8.30;99.90
23669;DHT22;12011;47.422;15.018;2023-09-07T04:29:03;8.40;99.90
23669;DHT22;12011;47.422;15.018;2023-09-07T04:32:06;8.40;99.90
23669;DHT22;12011;47.422;15.018;2023-09-07T04:38:27;8.40;99.90
23669;DHT22;12011;47.422;15.018;2023-09-07T04:41:18;8.40;99.90
23669;DHT22;12011;47.422;15.018;2023-09-07T04:44:17;8.50;99.90
23669;DHT22;12011;47.422;15.018;2023-09-07T04:47:35;8.60;99.90
23669;DHT22;12011;47.422;15.018;2023-09-07T04:50:28;8.70;99.90
23669;DHT22;12011;47.422;15.018;2023-09-07T04:53:35;8.70;99.90
23669;DHT22;12011;47.422;15.018;2023-09-07T04:56:18;8.70;99.90
23669;DHT22;12011;47.422;15.018;2023-09-07T04:59:04;8.80;99.90
23669;DHT22;12011;47.422;15.018;2023-09-07T05:01:58;8.80;99.90
23669;DHT22;12011;47.422;15.018;2023-09-07T05:05:04;8.90;99.90
23669;DHT22;12011;47.422;15.018;2023-09-07T05:07:57;9.10;99.90
23669;DHT22;12011;47.422;15.018;2023-09-07T05:10:39;9.20;99.90
23669;DHT22;12011;47.422;15.018;2023-09-07T05:13:23;9.30;99.90
23669;DHT22;12011;47.422;15.018;2023-09-07T05:16:25;9.40;99.90
23669;DHT22;12011;47.422;15.018;2023-09-07T05:19:38;9.60;99.90
23669;DHT22;12011;47.422;15.018;2023-09-07T05:22:32;9.90;99.90
23669;DHT22;12011;47.422;15.018;2023-09-07T05:25:21;10.10;99.90
23669;DHT22;12011;47.422;15.018;2023-09-07T05:28:30;10.30;99.90
23669;DHT22;12011;47.422;15.018;2023-09-07T05:31:24;10.50;99.90
23669;DHT22;12011;47.422;15.018;2023-09-07T05:34:17;10.60;99.90
23669;DHT22;12011;47.422;15.018;2023-09-07T05:37:17;10.80;99.90
23669;DHT22;12011;47.422;15.018;2023-09-07T05:40:44;11.10;99.90
23669;DHT22;12011;47.422;15.018;2023-09-07T05:43:45;11.50;99.90
23669;DHT22;12011;47.422;15.018;2023-09-07T05:47:05;12.10;99.90
23669;DHT22;12011;47.422;15.018;2023-09-07T05:49:50;12.70;99.90
23669;DHT22;12011;47.422;15.018;2023-09-07T05:52:36;14.30;99.90
23669;DHT22;12011;47.422;15.018;2023-09-07T05:55:21;15.50;99.90
23669;DHT22;12011;47.422;15.018;2023-09-07T05:58:31;15.50;99.90
23669;DHT22;12011;47.422;15.018;2023-09-07T06:01:50;16.10;99.90
23669;DHT22;12011;47.422;15.018;2023-09-07T06:04:35;16.60;99.90
23669;DHT22;12011;47.422;15.018;2023-09-07T06:07:29;16.40;99.90
23669;DHT22;12011;47.422;15.018;2023-09-07T06:10:30;16.00;99.90
23669;DHT22;12011;47.422;15.018;2023-09-07T06:13:48;16.00;99.90
23669;DHT22;12011;47.422;15.018;2023-09-07T06:16:33;15.30;99.90
23669;DHT22;12011;47.422;15.018;2023-09-07T06:19:21;15.30;99.90
23669;DHT22;12011;47.422;15.018;2023-09-07T06:25:08;15.10;99.90
23669;DHT22;12011;47.422;15.018;2023-09-07T06:28:02;15.30;99.90
23669;DHT22;12011;47.422;15.018;2023-09-07T06:31:16;15.90;99.90
23669;DHT22;12011;47.422;15.018;2023-09-07T06:34:19;17.70;99.90
23669;DHT22;12011;47.422;15.018;2023-09-07T06:37:05;19.30;97.70
23669;DHT22;12011;47.422;15.018;2023-09-07T06:39:48;20.20;85.30
23669;DHT22;12011;47.422;15.018;2023-09-07T06:42:36;20.40;81.30
23669;DHT22;12011;47.422;15.018;2023-09-07T06:45:31;20.00;87.10
23669;DHT22;12011;47.422;15.018;2023-09-07T06:48:15;20.10;83.10
23669;DHT22;12011;47.422;15.018;2023-09-07T06:51:11;20.30;85.30
23669;DHT22;12011;47.422;15.018;2023-09-07T06:53:56;21.00;75.60
23669;DHT22;12011;47.422;15.018;2023-09-07T06:56:50;20.80;76.40
23669;DHT22;12011;47.422;15.018;2023-09-07T06:59:54;22.00;76.90
23669;DHT22;12011;47.422;15.018;2023-09-07T07:02:53;22.60;67.30
23669;DHT22;12011;47.422;15.018;2023-09-07T07:05:59;23.10;62.80
23669;DHT22;12011;47.422;15.018;2023-09-07T07:09:05;23.40;61.70
23669;DHT22;12011;47.422;15.018;2023-09-07T07:11:36;23.90;60.70
23669;DHT22;12011;47.422;15.018;2023-09-07T07:14:09;24.60;59.30
23669;DHT22;12011;47.422;15.018;2023-09-07T07:16:42;24.90;56.70
23669;DHT22;12011;47.422;15.018;2023-09-07T07:19:15;24.70;55.50
23669;DHT22;12011;47.422;15.018;2023-09-07T07:21:50;25.40;57.50
23669;DHT22;12011;47.422;15.018;2023-09-07T07:24:20;25.60;57.20
23669;DHT22;12011;47.422;15.018;2023-09-07T07:26:53;26.40;57.40
23669;DHT22;12011;47.422;15.018;2023-09-07T07:29:35;25.90;51.40
23669;DHT22;12011;47.422;15.018;2023-09-07T07:32:22;25.50;51.00
23669;DHT22;12011;47.422;15.018;2023-09-07T07:35:00;25.70;51.80
23669;DHT22;12011;47.422;15.018;2023-09-07T07:37:48;25.60;50.70
23669;DHT22;12011;47.422;15.018;2023-09-07T07:40:23;25.80;53.40
23669;DHT22;12011;47.422;15.018;2023-09-07T07:42:56;25.30;51.70
23669;DHT22;12011;47.422;15.018;2023-09-07T07:45:27;25.40;51.40
23669;DHT22;12011;47.422;15.018;2023-09-07T07:48:04;25.70;52.50
23669;DHT22;12011;47.422;15.018;2023-09-07T07:50:43;26.00;52.00
23669;DHT22;12011;47.422;15.018;2023-09-07T07:53:30;25.90;52.40
23669;DHT22;12011;47.422;15.018;2023-09-07T07:56:24;26.90;54.30
23669;DHT22;12011;47.422;15.018;2023-09-07T07:59:11;26.30;50.00
23669;DHT22;12011;47.422;15.018;2023-09-07T08:01:54;26.00;53.40
23669;DHT22;12011;47.422;15.018;2023-09-07T08:04:39;26.30;50.40
23669;DHT22;12011;47.422;15.018;2023-09-07T08:07:20;26.60;52.20
23669;DHT22;12011;47.422;15.018;2023-09-07T08:30:15;27.30;49.90
23669;DHT22;12011;47.422;15.018;2023-09-07T08:32:54;27.30;49.70
23669;DHT22;12011;47.422;15.018;2023-09-07T08:35:32;28.30;48.40
23669;DHT22;12011;47.422;15.018;2023-09-07T08:38:11;28.80;49.00
23669;DHT22;12011;47.422;15.018;2023-09-07T08:40:44;28.90;48.80
23669;DHT22;12011;47.422;15.018;2023-09-07T08:43:21;28.60;46.90
23669;DHT22;12011;47.422;15.018;2023-09-07T08:48:39;28.90;45.50
23669;DHT22;12011;47.422;15.018;2023-09-07T08:51:18;29.60;48.70
23669;DHT22;12011;47.422;15.018;2023-09-07T08:54:00;29.60;46.40
23669;DHT22;12011;47.422;15.018;2023-09-07T08:56:35;29.80;47.40
23669;DHT22;12011;47.422;15.018;2023-09-07T08:59:10;29.90;47.10
23669;DHT22;12011;47.422;15.018;2023-09-07T09:01:47;29.90;44.30
23669;DHT22;12011;47.422;15.018;2023-09-07T09:04:21;29.40;44.90
23669;DHT22;12011;47.422;15.018;2023-09-07T09:06:52;30.10;46.60
23669;DHT22;12011;47.422;15.018;2023-09-07T09:09:27;30.40;44.50
23669;DHT22;12011;47.422;15.018;2023-09-07T09:12:09;30.60;44.90
23669;DHT22;12011;47.422;15.018;2023-09-07T09:14:43;30.60;42.60
23669;DHT22;12011;47.422;15.018;2023-09-07T09:17:19;30.70;44.70
23669;DHT22;12011;47.422;15.018;2023-09-07T09:19:52;30.90;43.00
23669;DHT22;12011;47.422;15.018;2023-09-07T09:22:23;30.50;43.90
23669;DHT22;12011;47.422;15.018;2023-09-07T09:25:03;30.50;45.20
23669;DHT22;12011;47.422;15.018;2023-09-07T09:27:39;30.80;43.40
23669;DHT22;12011;47.422;15.018;2023-09-07T09:30:13;31.30;44.10
23669;DHT22;12011;47.422;15.018;2023-09-07T09:32:49;31.60;43.60
23669;DHT22;12011;47.422;15.018;2023-09-07T09:35:25;31.70;43.00
23669;DHT22;12011;47.422;15.018;2023-09-07T09:37:56;33.00;46.80
23669;DHT22;12011;47.422;15.018;2023-09-07T09:40:32;32.30;42.20
23669;DHT22;12011;47.422;15.018;2023-09-07T09:43:03;31.40;40.80
23669;DHT22;12011;47.422;15.018;2023-09-07T09:45:33;32.10;42.90
23669;DHT22;12011;47.422;15.018;2023-09-07T09:48:09;32.10;41.40
23669;DHT22;12011;47.422;15.018;2023-09-07T09:50:44;31.90;41.20
23669;DHT22;12011;47.422;15.018;2023-09-07T09:53:16;32.10;39.90
23669;DHT22;12011;47.422;15.018;2023-09-07T09:55:50;32.20;41.50
23669;DHT22;12011;47.422;15.018;2023-09-07T09:58:20;32.20;39.20
23669;DHT22;12011;47.422;15.018;2023-09-07T10:00:57;31.40;40.70
23669;DHT22;12011;47.422;15.018;2023-09-07T10:16:18;32.70;39.40
23669;DHT22;12011;47.422;15.018;2023-09-07T10:20:25;33.70;39.60
23669;DHT22;12011;47.422;15.018;2023-09-07T10:27:01;32.60;37.50
23669;DHT22;12011;47.422;15.018;2023-09-07T10:33:46;32.30;39.50
23669;DHT22;12011;47.422;15.018;2023-09-07T10:37:11;33.10;38.60
23669;DHT22;12011;47.422;15.018;2023-09-07T10:40:01;33.30;42.80
23669;DHT22;12011;47.422;15.018;2023-09-07T10:43:56;33.60;36.60
23669;DHT22;12011;47.422;15.018;2023-09-07T10:47:29;33.70;37.30
23669;DHT22;12011;47.422;15.018;2023-09-07T10:51:23;33.80;35.90
23669;DHT22;12011;47.422;15.018;2023-09-07T10:55:27;33.10;36.30
23669;DHT22;12011;47.422;15.018;2023-09-07T10:58:50;33.50;37.90
23669;DHT22;12011;47.422;15.018;2023-09-07T11:03:06;33.80;38.40
23669;DHT22;12011;47.422;15.018;2023-09-07T11:27:28;33.40;37.00
23669;DHT22;12011;47.422;15.018;2023-09-07T12:12:20;29.30;38.70
23669;DHT22;12011;47.422;15.018;2023-09-07T12:16:09;28.90;39.60
23669;DHT22;12011;47.422;15.018;2023-09-07T12:20:27;28.20;42.70
23669;DHT22;12011;47.422;15.018;2023-09-07T12:40:43;28.50;38.00
23669;DHT22;12011;47.422;15.018;2023-09-07T13:26:27;27.80;41.30
23669;DHT22;12011;47.422;15.018;2023-09-07T13:29:53;28.00;39.60
23669;DHT22;12011;47.422;15.018;2023-09-07T13:40:21;27.50;43.60
23669;DHT22;12011;47.422;15.018;2023-09-07T13:47:49;27.20;40.80
23669;DHT22;12011;47.422;15.018;2023-09-07T13:51:17;27.40;44.60
23669;DHT22;12011;47.422;15.018;2023-09-07T13:54:53;27.50;43.50
23669;DHT22;12011;47.422;15.018;2023-09-07T13:58:33;27.40;42.00
23669;DHT22;12011;47.422;15.018;2023-09-07T14:05:13;27.20;41.80
23669;DHT22;12011;47.422;15.018;2023-09-07T14:12:06;26.70;41.30
23669;DHT22;12011;47.422;15.018;2023-09-07T14:15:26;26.90;43.60
23669;DHT22;12011;47.422;15.018;2023-09-07T14:17:59;27.10;41.70
23669;DHT22;12011;47.422;15.018;2023-09-07T14:20:52;26.90;40.70
23669;DHT22;12011;47.422;15.018;2023-09-07T14:23:40;26.90;43.20
23669;DHT22;12011;47.422;15.018;2023-09-07T14:30:24;26.90;45.90
23669;DHT22;12011;47.422;15.018;2023-09-07T14:32:53;26.80;42.00
23669;DHT22;12011;47.422;15.018;2023-09-07T14:35:23;26.90;45.00
23669;DHT22;12011;47.422;15.018;2023-09-07T14:37:53;26.70;40.10
23669;DHT22;12011;47.422;15.018;2023-09-07T14:40:23;26.90;43.30
23669;DHT22;12011;47.422;15.018;2023-09-07T14:42:53;26.90;45.00
23669;DHT22;12011;47.422;15.018;2023-09-07T14:45:26;26.90;40.30
23669;DHT22;12011;47.422;15.018;2023-09-07T14:47:56;26.60;41.20
23669;DHT22;12011;47.422;15.018;2023-09-07T14:50:26;26.30;39.40
23669;DHT22;12011;47.422;15.018;2023-09-07T14:52:56;26.40;43.60
23669;DHT22;12011;47.422;15.018;2023-09-07T14:55:26;26.30;39.20
23669;DHT22;12011;47.422;15.018;2023-09-07T14:57:56;25.90;41.50
23669;DHT22;12011;47.422;15.018;2023-09-07T15:00:28;25.70;43.30
23669;DHT22;12011;47.422;15.018;2023-09-07T15:02:58;26.00;42.60
23669;DHT22;12011;47.422;15.018;2023-09-07T15:05:28;25.80;40.10
23669;DHT22;12011;47.422;15.018;2023-09-07T15:07:58;25.50;43.70
23669;DHT22;12011;47.422;15.018;2023-09-07T15:10:30;25.30;40.80
23669;DHT22;12011;47.422;15.018;2023-09-07T15:13:00;25.10;42.90
23669;DHT22;12011;47.422;15.018;2023-09-07T15:15:33;25.00;41.80
23669;DHT22;12011;47.422;15.018;2023-09-07T15:18:06;25.20;43.60
23669;DHT22;12011;47.422;15.018;2023-09-07T15:20:36;25.20;46.20
23669;DHT22;12011;47.422;15.018;2023-09-07T15:23:07;25.20;44.90
23669;DHT22;12011;47.422;15.018;2023-09-07T15:25:36;25.00;44.10
23669;DHT22;12011;47.422;15.018;2023-09-07T15:28:07;24.80;49.80
23669;DHT22;12011;47.422;15.018;2023-09-07T15:30:40;24.70;45.70
23669;DHT22;12011;47.422;15.018;2023-09-07T15:33:10;24.70;46.10
23669;DHT22;12011;47.422;15.018;2023-09-07T15:35:43;24.30;44.40
23669;DHT22;12011;47.422;15.018;2023-09-07T15:38:12;24.20;49.50
23669;DHT22;12011;47.422;15.018;2023-09-07T15:40:45;24.30;49.20
23669;DHT22;12011;47.422;15.018;2023-09-07T15:43:25;24.20;49.80
23669;DHT22;12011;47.422;15.018;2023-09-07T15:49:49;23.90;48.10
23669;DHT22;12011;47.422;15.018;2023-09-07T15:52:20;23.70;48.30
23669;DHT22;12011;47.422;15.018;2023-09-07T15:54:54;23.60;48.50
23669;DHT22;12011;47.422;15.018;2023-09-07T16:00:26;23.40;49.10
23669;DHT22;12011;47.422;15.018;2023-09-07T16:03:03;23.10;49.00
23669;DHT22;12011;47.422;15.018;2023-09-07T16:05:36;23.10;52.70
23669;DHT22;12011;47.422;15.018;2023-09-07T16:08:07;23.10;52.00
23669;DHT22;12011;47.422;15.018;2023-09-07T16:10:36;23.00;53.80
23669;DHT22;12011;47.422;15.018;2023-09-07T16:13:07;22.80;51.50
23669;DHT22;12011;47.422;15.018;2023-09-07T16:15:36;22.70;51.80
23669;DHT22;12011;47.422;15.018;2023-09-07T16:18:06;22.60;52.20
23669;DHT22;12011;47.422;15.018;2023-09-07T16:20:38;22.50;51.60
23669;DHT22;12011;47.422;15.018;2023-09-07T16:23:08;22.40;52.90
23669;DHT22;12011;47.422;15.018;2023-09-07T16:25:38;22.30;55.80
23669;DHT22;12011;47.422;15.018;2023-09-07T16:28:07;22.30;53.00
23669;DHT22;12011;47.422;15.018;2023-09-07T16:30:37;22.10;57.60
23669;DHT22;12011;47.422;15.018;2023-09-07T16:33:07;22.00;56.60
23669;DHT22;12011;47.422;15.018;2023-09-07T16:35:40;21.90;58.50
23669;DHT22;12011;47.422;15.018;2023-09-07T16:38:09;21.90;57.80
23669;DHT22;12011;47.422;15.018;2023-09-07T16:40:41;21.70;57.50
23669;DHT22;12011;47.422;15.018;2023-09-07T16:43:10;21.60;56.70
23669;DHT22;12011;47.422;15.018;2023-09-07T16:45:40;21.50;61.20
23669;DHT22;12011;47.422;15.018;2023-09-07T16:48:09;21.50;58.80
23669;DHT22;12011;47.422;15.018;2023-09-07T16:50:47;21.50;57.30
23669;DHT22;12011;47.422;15.018;2023-09-07T16:53:17;21.30;58.50
23669;DHT22;12011;47.422;15.018;2023-09-07T16:55:47;21.30;62.70
23669;DHT22;12011;47.422;15.018;2023-09-07T16:58:17;21.00;70.30
23669;DHT22;12011;47.422;15.018;2023-09-07T17:00:47;20.80;74.80
23669;DHT22;12011;47.422;15.018;2023-09-07T17:03:17;20.50;82.50
23669;DHT22;12011;47.422;15.018;2023-09-07T17:05:49;20.10;86.30
23669;DHT22;12011;47.422;15.018;2023-09-07T17:08:19;19.80;86.50
23669;DHT22;12011;47.422;15.018;2023-09-07T17:10:50;19.50;92.20
23669;DHT22;12011;47.422;15.018;2023-09-07T17:13:20;19.30;93.50
23669;DHT22;12011;47.422;15.018;2023-09-07T17:15:50;19.00;96.20
23669;DHT22;12011;47.422;15.018;2023-09-07T17:18:20;18.90;96.20
23669;DHT22;12011;47.422;15.018;2023-09-07T17:20:52;18.80;98.10
23669;DHT22;12011;47.422;15.018;2023-09-07T17:23:25;18.40;99.90
23669;DHT22;12011;47.422;15.018;2023-09-07T17:26:00;18.30;99.90
23669;DHT22;12011;47.422;15.018;2023-09-07T17:28:30;18.00;99.90
23669;DHT22;12011;47.422;15.018;2023-09-07T17:31:00;17.60;99.90
23669;DHT22;12011;47.422;15.018;2023-09-07T17:33:29;17.30;99.90
23669;DHT22;12011;47.422;15.018;2023-09-07T17:36:06;17.30;99.90
23669;DHT22;12011;47.422;15.018;2023-09-07T17:39:11;16.90;99.90
23669;DHT22;12011;47.422;15.018;2023-09-07T17:49:27;16.40;99.90
23669;DHT22;12011;47.422;15.018;2023-09-07T17:52:53;16.30;99.90
23669;DHT22;12011;47.422;15.018;2023-09-07T17:56:30;16.20;99.90
23669;DHT22;12011;47.422;15.018;2023-09-07T18:08:18;16.10;99.90
23669;DHT22;12011;47.422;15.018;2023-09-07T18:12:40;16.00;99.90
23669;DHT22;12011;47.422;15.018;2023-09-07T18:16:10;15.60;99.90
23669;DHT22;12011;47.422;15.018;2023-09-07T18:20:11;15.40;99.90
23669;DHT22;12011;47.422;15.018;2023-09-07T18:23:45;15.30;99.90
23669;DHT22;12011;47.422;15.018;2023-09-07T18:30:39;15.20;99.90
23669;DHT22;12011;47.422;15.018;2023-09-07T18:34:26;15.20;99.90
23669;DHT22;12011;47.422;15.018;2023-09-07T18:37:58;14.90;99.90
23669;DHT22;12011;47.422;15.018;2023-09-07T18:49:12;14.50;99.90
23669;DHT22;12011;47.422;15.018;2023-09-07T18:53:02;14.30;99.90
23669;DHT22;12011;47.422;15.018;2023-09-07T18:56:35;14.20;99.90
23669;DHT22;12011;47.422;15.018;2023-09-07T19:00:28;13.60;99.90
23669;DHT22;12011;47.422;15.018;2023-09-07T19:03:53;14.40;99.90
23669;DHT22;12011;47.422;15.018;2023-09-07T19:07:20;14.40;99.90
23669;DHT22;12011;47.422;15.018;2023-09-07T19:10:43;14.20;99.90
23669;DHT22;12011;47.422;15.018;2023-09-07T19:13:32;14.00;99.90
23669;DHT22;12011;47.422;15.018;2023-09-07T19:16:04;14.00;99.90
23669;DHT22;12011;47.422;15.018;2023-09-07T19:18:34;13.80;99.90
23669;DHT22;12011;47.422;15.018;2023-09-07T19:21:07;13.90;99.90
23669;DHT22;12011;47.422;15.018;2023-09-07T19:23:40;13.90;99.90
23669;DHT22;12011;47.422;15.018;2023-09-07T19:26:26;13.90;99.90
23669;DHT22;12011;47.422;15.018;2023-09-07T19:29:00;14.00;99.90
23669;DHT22;12011;47.422;15.018;2023-09-07T19:31:34;13.80;99.90
23669;DHT22;12011;47.422;15.018;2023-09-07T19:34:05;13.90;99.90
23669;DHT22;12011;47.422;15.018;2023-09-07T19:36:35;14.00;99.90
23669;DHT22;12011;47.422;15.018;2023-09-07T19:39:08;14.00;99.90
23669;DHT22;12011;47.422;15.018;2023-09-07T19:41:38;13.80;99.90
23669;DHT22;12011;47.422;15.018;2023-09-07T19:44:09;13.80;99.90
23669;DHT22;12011;47.422;15.018;2023-09-07T19:46:41;13.80;99.90
23669;DHT22;12011;47.422;15.018;2023-09-07T19:49:12;13.80;99.90
23669;DHT22;12011;47.422;15.018;2023-09-07T19:51:43;13.90;99.90
23669;DHT22;12011;47.422;15.018;2023-09-07T19:54:13;13.60;99.90
23669;DHT22;12011;47.422;15.018;2023-09-07T19:56:43;13.40;99.90
23669;DHT22;12011;47.422;15.018;2023-09-07T19:59:13;13.50;99.90
23669;DHT22;12011;47.422;15.018;2023-09-07T20:01:56;13.60;99.90
23669;DHT22;12011;47.422;15.018;2023-09-07T20:04:28;13.60;99.90
23669;DHT22;12011;47.422;15.018;2023-09-07T20:06:58;13.40;99.90
23669;DHT22;12011;47.422;15.018;2023-09-07T20:09:29;13.40;99.90
23669;DHT22;12011;47.422;15.018;2023-09-07T20:12:00;13.30;99.90
23669;DHT22;12011;47.422;15.018;2023-09-07T20:14:30;13.20;99.90
23669;DHT22;12011;47.422;15.018;2023-09-07T20:17:02;13.20;99.90
23669;DHT22;12011;47.422;15.018;2023-09-07T20:19:41;13.00;99.90
23669;DHT22;12011;47.422;15.018;2023-09-07T20:22:16;13.00;99.90
23669;DHT22;12011;47.422;15.018;2023-09-07T20:24:46;13.00;99.90
23669;DHT22;12011;47.422;15.018;2023-09-07T20:27:16;13.00;99.90
23669;DHT22;12011;47.422;15.018;2023-09-07T20:29:45;13.10;99.90
23669;DHT22;12011;47.422;15.018;2023-09-07T20:32:18;13.00;99.90
23669;DHT22;12011;47.422;15.018;2023-09-07T20:34:49;12.80;99.90
23669;DHT22;12011;47.422;15.018;2023-09-07T20:37:20;12.80;99.90
23669;DHT22;12011;47.422;15.018;2023-09-07T20:39:52;12.70;99.90
23669;DHT22;12011;47.422;15.018;2023-09-07T20:42:23;12.70;99.90
23669;DHT22;12011;47.422;15.018;2023-09-07T20:44:52;12.60;99.90
23669;DHT22;12011;47.422;15.018;2023-09-07T20:47:25;12.70;99.90
23669;DHT22;12011;47.422;15.018;2023-09-07T20:49:59;12.70;99.90
23669;DHT22;12011;47.422;15.018;2023-09-07T20:52:32;12.70;99.90
23669;DHT22;12011;47.422;15.018;2023-09-07T20:55:02;12.70;99.90
23669;DHT22;12011;47.422;15.018;2023-09-07T20:57:32;12.70;99.90
23669;DHT22;12011;47.422;15.018;2023-09-07T21:00:04;12.70;99.90
23669;DHT22;12011;47.422;15.018;2023-09-07T21:02:40;12.70;99.90
23669;DHT22;12011;47.422;15.018;2023-09-07T21:05:13;12.60;99.90
23669;DHT22;12011;47.422;15.018;2023-09-07T21:07:44;12.40;99.90
23669;DHT22;12011;47.422;15.018;2023-09-07T21:10:13;12.20;99.90
23669;DHT22;12011;47.422;15.018;2023-09-07T21:12:43;12.30;99.90
23669;DHT22;12011;47.422;15.018;2023-09-07T21:15:14;12.30;99.90
23669;DHT22;12011;47.422;15.018;2023-09-07T21:17:46;12.20;99.90
23669;DHT22;12011;47.422;15.018;2023-09-07T21:20:16;12.20;99.90
23669;DHT22;12011;47.422;15.018;2023-09-07T21:22:47;12.20;99.90
23669;DHT22;12011;47.422;15.018;2023-09-07T21:25:16;12.20;99.90
23669;DHT22;12011;47.422;15.018;2023-09-07T21:27:49;12.20;99.90
23669;DHT22;12011;47.422;15.018;2023-09-07T21:30:19;12.00;99.90
23669;DHT22;12011;47.422;15.018;2023-09-07T21:32:51;12.10;99.90
23669;DHT22;12011;47.422;15.018;2023-09-07T21:35:21;12.10;99.90
23669;DHT22;12011;47.422;15.018;2023-09-07T21:37:51;12.10;99.90
23669;DHT22;12011;47.422;15.018;2023-09-07T21:40:21;12.10;99.90
23669;DHT22;12011;47.422;15.018;2023-09-07T21:42:51;12.00;99.90
23669;DHT22;12011;47.422;15.018;2023-09-07T21:45:21;11.90;99.90
23669;DHT22;12011;47.422;15.018;2023-09-07T21:47:54;11.80;99.90
23669;DHT22;12011;47.422;15.018;2023-09-07T21:50:23;11.60;99.90